Time;durP1;ratioP1;P1;durP2;ratioP2;P2;SDS_P1;SDS_P2;PMS_P1;PMS_P2;Temp;Humidity;BMP_temperature;BMP_pressure;BME280_temperature;BME280_humidity;BME280_pressure;Samples;Min_cycle;Max_cycle;Signal;HPM_P1;HPM_P2
2023/04/10 00:00:55;;;;;;;0.40;0.40;;;;;;;8.69;65.43;97104.06;4984780;28;20529;-63
2023/04/10 00:03:23;;;;;;;0.40;0.40;;;;;;;8.46;65.52;97100.28;4984693;28;20054;-63
2023/04/10 00:05:53;;;;;;;0.40;0.40;;;;;;;8.39;66.04;97105.66;4984529;28;20050;-62
2023/04/10 00:08:22;;;;;;;0.40;0.40;;;;;;;8.06;65.55;97036.16;4983044;28;20172;-64
2023/04/10 00:10:49;;;;;;;0.40;0.40;;;;;;;8.35;65.64;97093.69;4982985;28;20066;-62
2023/04/10 00:13:16;;;;;;;0.40;0.40;;;;;;;8.39;67.09;97092.66;4984602;28;20234;-62
2023/04/10 00:15:42;;;;;;;0.43;0.43;;;;;;;8.19;67.00;97096.41;4984165;28;20564;-63
2023/04/10 00:18:09;;;;;;;0.30;0.30;;;;;;;8.01;67.80;97086.06;4984097;28;20124;-63
2023/04/10 00:20:36;;;;;;;0.40;0.40;;;;;;;8.11;67.62;97088.31;4984616;28;20058;-63
2023/04/10 00:23:02;;;;;;;0.40;0.40;;;;;;;7.61;67.18;97020.75;4987539;28;20066;-63
2023/04/10 00:25:29;;;;;;;0.35;0.35;;;;;;;8.03;66.86;97152.72;4986703;28;20062;-63
2023/04/10 00:27:55;;;;;;;0.40;0.40;;;;;;;7.99;66.96;97082.84;4987098;28;20850;-62
2023/04/10 00:30:22;;;;;;;0.40;0.40;;;;;;;7.88;66.73;97071.53;4987801;28;20061;-63
2023/04/10 00:32:49;;;;;;;0.40;0.40;;;;;;;7.84;66.48;97078.09;4988228;28;20101;-63
2023/04/10 00:35:15;;;;;;;0.40;0.40;;;;;;;7.60;66.76;97041.19;4987934;28;20440;-63
2023/04/10 00:37:42;;;;;;;0.38;0.38;;;;;;;7.56;68.03;97073.38;4988503;28;20453;-63
2023/04/10 00:40:09;;;;;;;0.40;0.40;;;;;;;7.59;68.06;97072.69;4987902;28;20085;-63
2023/04/10 00:42:36;;;;;;;0.40;0.40;;;;;;;7.55;68.44;97071.78;4986627;28;20213;-62
2023/04/10 00:45:03;;;;;;;0.30;0.30;;;;;;;7.62;68.86;97066.47;4986349;28;20121;-63
2023/04/10 00:47:30;;;;;;;0.30;0.30;;;;;;;7.33;68.37;97025.44;4987836;28;20089;-64
2023/04/10 00:49:58;;;;;;;0.30;0.30;;;;;;;7.21;69.29;97058.56;4986533;28;20116;-63
2023/04/10 00:52:25;;;;;;;0.30;0.30;;;;;;;7.04;69.40;97061.59;4987929;28;20120;-62
2023/04/10 00:54:52;;;;;;;0.40;0.40;;;;;;;6.94;70.13;97051.03;4987652;28;20054;-62
2023/04/10 00:57:18;;;;;;;0.30;0.30;;;;;;;7.08;69.05;97056.97;4988040;28;20073;-62
2023/04/10 00:59:47;;;;;;;0.40;0.40;;;;;;;6.88;70.45;97057.94;4987761;28;20126;-62
2023/04/10 01:02:13;;;;;;;0.40;0.40;;;;;;;6.84;69.97;97050.72;4985947;28;20050;-62
2023/04/10 01:04:41;;;;;;;0.40;0.40;;;;;;;6.87;69.57;97061.84;4987162;28;20057;-63
2023/04/10 01:07:26;;;;;;;0.40;0.40;;;;;;;4.41;69.55;96673.75;4986002;28;20065;-63
2023/04/10 01:09:58;;;;;;;0.40;0.40;;;;;;;6.75;70.72;97048.06;4987809;28;20137;-62
2023/04/10 01:12:47;;;;;;;0.30;0.30;;;;;;;6.36;70.50;96998.44;4986041;28;20489;-63
2023/04/10 01:15:27;;;;;;;0.30;0.30;;;;;;;6.69;70.85;97049.47;4987601;28;20050;-63
2023/04/10 01:18:03;;;;;;;0.30;0.30;;;;;;;6.15;71.83;96995.81;4987470;28;20145;-61
2023/04/10 01:20:33;;;;;;;0.30;0.30;;;;;;;6.33;71.78;97024.72;4987074;28;20085;-64
2023/04/10 01:23:09;;;;;;;0.30;0.30;;;;;;;6.27;73.31;97039.84;4987603;28;20093;-64
2023/04/10 01:25:38;;;;;;;0.30;0.30;;;;;;;6.13;73.29;97047.63;4986087;28;20073;-64
2023/04/10 01:28:17;;;;;;;0.30;0.30;;;;;;;6.27;72.76;97047.28;4985808;28;20050;-63
2023/04/10 01:30:52;;;;;;;0.30;0.30;;;;;;;6.22;73.05;97053.81;4985637;28;20054;-63
2023/04/10 01:33:21;;;;;;;0.30;0.30;;;;;;;6.05;73.53;97051.25;4985576;28;20058;-62
2023/04/10 01:35:55;;;;;;;0.30;0.30;;;;;;;6.07;74.45;97054.44;4987113;28;20060;-61
2023/04/10 01:38:26;;;;;;;0.32;0.32;;;;;;;6.04;74.48;97050.44;4987103;28;20046;-61
2023/04/10 01:40:54;;;;;;;0.30;0.30;;;;;;;6.09;73.28;97058.50;4986805;28;20125;-62
2023/04/10 01:43:25;;;;;;;0.40;0.40;;;;;;;6.15;73.23;97045.31;4987065;28;20096;-62
2023/04/10 01:45:52;;;;;;;0.30;0.30;;;;;;;5.62;72.69;96968.44;4986393;28;20575;-61
2023/04/10 01:48:19;;;;;;;0.30;0.30;;;;;;;6.21;72.70;97059.66;4986462;28;20061;-62
2023/04/10 01:50:47;;;;;;;0.30;0.30;;;;;;;6.26;74.18;97057.47;4985107;28;20595;-61
2023/04/10 01:53:14;;;;;;;0.30;0.30;;;;;;;6.16;73.84;97068.94;4986715;28;20092;-62
2023/04/10 01:55:42;;;;;;;0.30;0.30;;;;;;;6.01;73.73;97055.81;4986799;28;20058;-61
2023/04/10 01:58:09;;;;;;;0.30;0.30;;;;;;;5.66;72.93;96988.59;4973416;28;20137;-61
2023/04/10 02:00:43;;;;;;;0.30;0.30;;;;;;;6.22;72.74;97062.06;4968387;28;20101;-61
2023/04/10 02:03:10;;;;;;;0.30;0.30;;;;;;;6.05;73.69;97073.25;4967033;28;20466;-61
2023/04/10 02:05:58;;;;;;;0.30;0.30;;;;;;;6.11;73.27;97064.47;4966991;28;20113;-61
2023/04/10 02:08:33;;;;;;;0.30;0.30;;;;;;;5.55;73.24;97004.72;4966928;28;20063;-62
2023/04/10 02:11:00;;;;;;;0.30;0.30;;;;;;;5.97;74.44;97052.16;4966736;28;20058;-62
2023/04/10 02:13:28;;;;;;;0.30;0.30;;;;;;;5.92;75.58;97052.38;4965832;28;20481;-62
2023/04/10 02:15:58;;;;;;;0.30;0.30;;;;;;;5.51;75.28;97003.00;4966971;28;20050;-64
2023/04/10 02:18:29;;;;;;;0.30;0.30;;;;;;;5.82;75.06;97041.81;4986268;28;20094;-63
2023/04/10 02:20:56;;;;;;;0.30;0.30;;;;;;;5.28;75.79;96971.56;4986185;28;20051;-64
2023/04/10 02:23:23;;;;;;;0.30;0.30;;;;;;;5.72;75.70;97025.72;4985796;28;20581;-62
2023/04/10 02:25:49;;;;;;;0.30;0.30;;;;;;;5.98;75.12;97051.00;4986009;28;20133;-62
2023/04/10 02:28:16;;;;;;;0.30;0.30;;;;;;;5.84;74.95;97053.28;4986048;28;20112;-62
2023/04/10 02:30:43;;;;;;;0.30;0.30;;;;;;;5.77;75.46;97022.78;4985425;28;20288;-62
2023/04/10 02:33:09;;;;;;;0.30;0.30;;;;;;;5.90;75.33;97046.41;4985864;28;20116;-62
2023/04/10 02:35:36;;;;;;;0.30;0.30;;;;;;;5.68;75.94;97031.09;4986085;28;20545;-63
2023/04/10 02:38:03;;;;;;;0.30;0.30;;;;;;;5.90;75.26;97054.66;4986026;28;20501;-62
2023/04/10 02:40:30;;;;;;;0.30;0.30;;;;;;;5.80;75.73;97041.34;4985705;28;20073;-63
2023/04/10 02:42:56;;;;;;;0.30;0.30;;;;;;;4.81;74.30;96877.72;4985669;28;20093;-63
2023/04/10 02:45:23;;;;;;;0.30;0.30;;;;;;;5.77;74.95;97039.25;4984923;28;20129;-62
2023/04/10 02:47:49;;;;;;;0.30;0.30;;;;;;;5.68;76.69;97024.78;4986090;28;20132;-62
2023/04/10 02:50:16;;;;;;;0.30;0.30;;;;;;;5.67;76.45;97039.69;4985872;28;20133;-64
2023/04/10 02:52:43;;;;;;;0.30;0.30;;;;;;;5.68;76.03;97041.28;4986249;28;20058;-63
2023/04/10 02:55:10;;;;;;;0.30;0.30;;;;;;;5.36;76.80;97000.91;4985411;28;20097;-62
2023/04/10 02:57:36;;;;;;;0.30;0.30;;;;;;;4.99;76.97;96974.41;4985204;28;20081;-63
2023/04/10 03:00:04;;;;;;;0.30;0.30;;;;;;;5.28;77.91;97021.78;4985382;28;20476;-62
2023/04/10 03:02:31;;;;;;;0.30;0.30;;;;;;;5.21;78.70;97034.44;4983931;28;20051;-63
2023/04/10 03:05:00;;;;;;;0.30;0.30;;;;;;;4.81;78.73;96956.47;4984494;28;20058;-63
2023/04/10 03:07:27;;;;;;;0.30;0.30;;;;;;;5.13;79.33;97035.31;4983622;28;20147;-61
2023/04/10 03:09:53;;;;;;;0.30;0.30;;;;;;;5.08;79.55;96994.34;4985509;28;20500;-62
2023/04/10 03:12:20;;;;;;;0.30;0.30;;;;;;;5.14;79.75;97036.94;4983680;28;20087;-62
2023/04/10 03:14:47;;;;;;;0.30;0.30;;;;;;;4.76;79.60;96984.91;4984953;28;20050;-63
2023/04/10 03:17:13;;;;;;;0.30;0.30;;;;;;;4.68;79.74;96946.59;4985241;28;20065;-63
2023/04/10 03:19:40;;;;;;;0.30;0.30;;;;;;;5.20;79.78;97028.16;4985002;28;20061;-63
2023/04/10 03:22:07;;;;;;;0.30;0.30;;;;;;;4.70;78.88;96928.66;4985291;28;20061;-63
2023/04/10 03:24:33;;;;;;;0.30;0.30;;;;;;;5.18;77.45;96988.44;4976693;28;20108;-63
2023/04/10 03:27:00;;;;;;;0.20;0.20;;;;;;;5.49;76.89;97032.72;4983877;28;20054;-63
2023/04/10 03:29:26;;;;;;;0.30;0.30;;;;;;;5.37;78.42;97029.94;4983282;28;20105;-63
2023/04/10 03:31:53;;;;;;;0.30;0.30;;;;;;;5.29;78.51;97045.38;4985066;28;20057;-64
2023/04/10 03:34:20;;;;;;;0.30;0.30;;;;;;;5.15;78.78;97013.84;4983655;28;20249;-64
2023/04/10 03:36:47;;;;;;;0.30;0.30;;;;;;;5.35;78.32;97037.72;4985018;28;20078;-64
2023/04/10 03:39:13;;;;;;;0.30;0.30;;;;;;;5.21;78.37;97010.56;4984828;28;20547;-63
2023/04/10 03:41:40;;;;;;;0.30;0.30;;;;;;;5.37;78.69;97029.94;4983466;28;20061;-63
2023/04/10 03:44:07;;;;;;;0.30;0.30;;;;;;;5.46;77.63;97027.91;4985364;28;20109;-63
2023/04/10 03:46:33;;;;;;;0.30;0.30;;;;;;;5.33;78.60;97021.59;4984648;28;20054;-63
2023/04/10 03:49:00;;;;;;;0.30;0.30;;;;;;;4.77;78.48;96941.84;4985675;28;20062;-63
2023/04/10 03:51:26;;;;;;;0.30;0.30;;;;;;;5.42;78.79;97032.50;4985289;28;20477;-63
2023/04/10 03:53:53;;;;;;;0.30;0.30;;;;;;;5.30;79.64;97026.94;4985511;28;20054;-63
2023/04/10 03:56:21;;;;;;;0.30;0.30;;;;;;;5.09;80.02;96998.72;4984987;28;20057;-63
2023/04/10 03:58:48;;;;;;;0.30;0.30;;;;;;;5.28;79.65;97010.78;4988888;28;20054;-64
2023/04/10 04:01:14;;;;;;;0.30;0.30;;;;;;;5.42;79.11;97027.00;4977458;28;20453;-63
2023/04/10 04:03:41;;;;;;;0.30;0.30;;;;;;;5.29;79.35;97028.91;4969337;28;20082;-64
2023/04/10 04:06:08;;;;;;;0.30;0.30;;;;;;;5.09;79.23;96980.28;4969499;28;20097;-63
2023/04/10 04:08:35;;;;;;;0.30;0.30;;;;;;;5.02;79.14;96992.94;4968604;28;20134;-63
2023/04/10 04:11:01;;;;;;;0.30;0.30;;;;;;;5.41;78.38;97025.38;4983844;28;20130;-63
2023/04/10 04:13:28;;;;;;;0.30;0.30;;;;;;;4.60;78.93;96891.47;4968796;28;20074;-63
2023/04/10 04:15:55;;;;;;;0.30;0.30;;;;;;;5.52;79.66;97027.38;4969045;28;20431;-63
2023/04/10 04:18:21;;;;;;;0.30;0.30;;;;;;;5.48;79.41;97034.69;4983852;28;20081;-64
2023/04/10 04:20:48;;;;;;;0.30;0.30;;;;;;;5.50;79.28;97028.88;4988292;28;20050;-61
2023/04/10 04:23:16;;;;;;;0.30;0.30;;;;;;;5.65;79.37;97028.22;4987356;28;20125;-61
2023/04/10 04:25:43;;;;;;;0.30;0.30;;;;;;;5.68;79.34;97031.09;4987286;28;20050;-62
2023/04/10 04:28:12;;;;;;;0.30;0.30;;;;;;;5.72;79.00;97028.47;4987263;28;20050;-62
2023/04/10 04:30:39;;;;;;;0.30;0.30;;;;;;;5.85;78.56;97030.13;4987129;28;20460;-63
2023/04/10 04:33:05;;;;;;;0.30;0.30;;;;;;;5.44;78.04;96956.03;4987167;28;20050;-62
2023/04/10 04:35:32;;;;;;;0.30;0.30;;;;;;;5.82;77.60;97028.88;4986868;28;20500;-62
2023/04/10 04:37:59;;;;;;;0.30;0.30;;;;;;;5.32;78.27;96939.53;4988178;28;20061;-62
2023/04/10 04:40:26;;;;;;;0.30;0.30;;;;;;;6.12;76.53;97032.25;4988311;28;20054;-62
2023/04/10 04:42:52;;;;;;;0.40;0.40;;;;;;;6.03;76.89;97053.53;4988299;28;20046;-61
2023/04/10 04:45:20;;;;;;;0.32;0.32;;;;;;;6.51;76.66;97034.34;4982495;28;20522;-65
2023/04/10 04:47:47;;;;;;;0.30;0.30;;;;;;;6.70;75.99;97028.25;4968478;28;20154;-64
2023/04/10 04:50:14;;;;;;;0.30;0.30;;;;;;;6.22;74.51;96924.53;4968706;28;20057;-63
2023/04/10 04:52:42;;;;;;;0.40;0.40;;;;;;;7.06;74.64;97031.75;4968145;28;20059;-64
2023/04/10 04:55:09;;;;;;;0.40;0.40;;;;;;;7.19;74.60;97036.06;4966911;28;20065;-64
2023/04/10 04:57:36;;;;;;;0.40;0.40;;;;;;;7.39;73.38;97020.50;4968423;28;20058;-64
2023/04/10 05:00:03;;;;;;;0.38;0.38;;;;;;;7.20;71.95;96966.06;4983001;28;20051;-64
2023/04/10 05:02:29;;;;;;;0.40;0.40;;;;;;;7.87;71.38;97038.78;4968440;28;20485;-64
2023/04/10 05:04:56;;;;;;;0.40;0.40;;;;;;;7.85;70.65;97036.38;4968075;28;20054;-64
2023/04/10 05:07:23;;;;;;;0.40;0.40;;;;;;;7.72;71.53;96994.28;4966083;28;20142;-64
2023/04/10 05:09:50;;;;;;;0.40;0.40;;;;;;;7.13;70.54;96910.75;4968178;28;20120;-64
2023/04/10 05:12:17;;;;;;;0.40;0.40;;;;;;;8.04;70.16;97027.41;4967968;28;20438;-64
2023/04/10 05:14:45;;;;;;;0.40;0.40;;;;;;;8.43;70.46;97051.31;4967764;28;20101;-65
2023/04/10 05:17:11;;;;;;;0.40;0.40;;;;;;;8.74;69.71;97045.81;4970575;28;20054;-65
2023/04/10 05:19:38;;;;;;;0.40;0.40;;;;;;;8.85;69.39;97042.13;4987046;28;20117;-67
2023/04/10 05:22:05;;;;;;;0.40;0.40;;;;;;;8.79;69.75;96998.56;4987324;28;20493;-65
2023/04/10 05:24:31;;;;;;;0.40;0.40;;;;;;;9.32;68.57;97042.00;4985146;28;20477;-64
2023/04/10 05:26:58;;;;;;;0.50;0.50;;;;;;;9.46;68.25;97017.41;4987323;28;20081;-64
2023/04/10 05:29:25;;;;;;;0.50;0.50;;;;;;;9.01;68.81;96948.16;4986896;28;20090;-63
2023/04/10 05:31:51;;;;;;;0.40;0.40;;;;;;;9.88;68.23;97045.91;4987018;28;20567;-63
2023/04/10 05:34:19;;;;;;;0.50;0.50;;;;;;;9.89;67.38;97003.28;4986851;28;20050;-63
2023/04/10 05:36:45;;;;;;;0.50;0.50;;;;;;;10.41;66.19;97046.94;4987279;28;20109;-64
2023/04/10 05:39:12;;;;;;;0.50;0.50;;;;;;;10.40;65.11;97057.22;4986744;28;20057;-64
2023/04/10 05:41:39;;;;;;;0.50;0.50;;;;;;;10.26;65.89;97048.66;4970157;28;20059;-65
2023/04/10 05:44:05;;;;;;;0.50;0.50;;;;;;;8.41;64.89;96728.00;4982515;28;20094;-73
2023/04/10 05:46:32;;;;;;;0.43;0.43;;;;;;;9.86;63.69;96951.44;4986425;28;20050;-59
2023/04/10 05:48:59;;;;;;;0.45;0.45;;;;;;;10.26;64.39;96984.97;4984359;28;20484;-66
2023/04/10 05:51:26;;;;;;;0.50;0.50;;;;;;;10.20;64.11;97000.31;4980743;28;20054;-65
2023/04/10 05:53:52;;;;;;;0.50;0.50;;;;;;;10.47;63.87;97046.28;4967040;28;20063;-59
2023/04/10 05:56:19;;;;;;;0.45;0.45;;;;;;;10.50;64.06;97045.53;4966726;28;20070;-64
2023/04/10 05:58:46;;;;;;;0.50;0.50;;;;;;;9.97;63.50;96960.72;4982549;28;20082;-66
2023/04/10 06:01:13;;;;;;;0.50;0.50;;;;;;;10.76;62.92;97042.00;4967786;28;20102;-59
2023/04/10 06:03:40;;;;;;;0.40;0.40;;;;;;;10.94;63.16;97042.28;4968087;28;20114;-66
2023/04/10 06:06:07;;;;;;;0.40;0.40;;;;;;;11.30;62.62;97055.50;4967220;28;20062;-63
2023/04/10 06:08:34;;;;;;;0.50;0.50;;;;;;;11.04;60.96;97041.63;4980464;28;20514;-66
2023/04/10 06:11:01;;;;;;;0.60;0.60;;;;;;;10.19;61.40;96901.84;4971622;28;20085;-64
2023/04/10 06:13:27;;;;;;;0.50;0.50;;;;;;;11.12;61.23;97040.56;4978514;28;20062;-57
2023/04/10 06:15:54;;;;;;;0.50;0.50;;;;;;;10.92;62.12;97016.91;4974580;28;20587;-63
2023/04/10 06:18:21;;;;;;;0.50;0.50;;;;;;;11.50;60.54;97037.53;4979203;28;20077;-69
2023/04/10 06:20:47;;;;;;;0.50;0.50;;;;;;;11.05;62.30;97037.72;4971386;28;20460;-66
2023/04/10 06:23:14;;;;;;;0.50;0.50;;;;;;;11.33;61.65;97030.59;4985667;28;20050;-57
2023/04/10 06:25:42;;;;;;;0.50;0.50;;;;;;;11.26;60.96;97038.00;4977342;28;20461;-67
2023/04/10 06:28:09;;;;;;;0.50;0.50;;;;;;;11.40;60.85;97033.44;4979897;28;20077;-58
2023/04/10 06:30:36;;;;;;;0.50;0.50;;;;;;;11.43;59.92;97037.47;4985191;28;20064;-60
2023/04/10 06:33:03;;;;;;;0.60;0.60;;;;;;;11.22;60.99;97037.16;4983259;28;20381;-63
2023/04/10 06:35:30;;;;;;;0.50;0.50;;;;;;;11.12;60.61;97038.59;4974501;28;20078;-57
2023/04/10 06:37:56;;;;;;;0.50;0.50;;;;;;;11.22;60.48;97042.72;4969584;28;20137;-71
2023/04/10 06:40:23;;;;;;;0.50;0.50;;;;;;;9.42;61.16;96719.97;4970572;28;20514;-59
2023/04/10 06:42:50;;;;;;;0.50;0.50;;;;;;;11.36;59.91;97040.94;4974762;28;20623;-57
2023/04/10 06:45:16;;;;;;;0.50;0.50;;;;;;;8.42;60.09;96603.44;4980226;28;20058;-57
2023/04/10 06:47:43;;;;;;;0.50;0.50;;;;;;;11.29;60.49;97028.94;4988391;28;20046;-66
2023/04/10 06:50:10;;;;;;;0.50;0.50;;;;;;;11.13;59.33;97017.25;4969375;28;20145;-59
2023/04/10 06:52:37;;;;;;;0.50;0.50;;;;;;;11.51;60.00;97044.69;4978347;28;20054;-59
2023/04/10 06:55:04;;;;;;;0.50;0.50;;;;;;;11.64;59.30;97043.31;4984129;28;20572;-66
2023/04/10 06:57:31;;;;;;;0.50;0.50;;;;;;;11.45;58.53;97035.91;4987690;28;20655;-68
2023/04/10 06:59:57;;;;;;;0.50;0.50;;;;;;;11.68;58.27;97055.25;4967108;28;20051;-58
2023/04/10 07:02:24;;;;;;;0.50;0.50;;;;;;;9.68;58.95;96712.47;4984681;28;20093;-61
2023/04/10 07:04:51;;;;;;;0.60;0.60;;;;;;;11.78;58.73;97046.25;4977934;28;20054;-59
2023/04/10 07:07:19;;;;;;;0.50;0.50;;;;;;;11.78;59.01;97054.56;4969710;28;20059;-74
2023/04/10 07:09:46;;;;;;;0.50;0.50;;;;;;;12.14;58.43;97051.03;4974785;28;20105;-71
2023/04/10 07:12:12;;;;;;;0.50;0.50;;;;;;;12.05;57.99;97056.09;4968120;28;20463;-66
2023/04/10 07:14:40;;;;;;;0.60;0.60;;;;;;;11.64;57.09;96973.94;4966251;28;20075;-57
2023/04/10 07:17:07;;;;;;;0.60;0.60;;;;;;;12.18;56.94;97054.66;4996930;28;20052;-71
2023/04/10 07:19:33;;;;;;;0.50;0.50;;;;;;;11.86;57.48;97011.84;4969720;28;20497;-59
2023/04/10 07:22:00;;;;;;;0.50;0.50;;;;;;;11.61;57.63;97049.56;4965817;28;20054;-59
2023/04/10 07:24:27;;;;;;;0.50;0.50;;;;;;;11.63;57.35;96969.59;4966924;28;20082;-61
2023/04/10 07:26:53;;;;;;;0.50;0.50;;;;;;;11.75;56.86;97055.34;4968060;28;20081;-59
2023/04/10 07:29:20;;;;;;;0.60;0.60;;;;;;;11.42;57.96;96981.19;4965395;28;20058;-59
2023/04/10 07:31:47;;;;;;;0.50;0.50;;;;;;;11.64;57.82;97076.59;4965562;28;20269;-66
2023/04/10 07:34:14;;;;;;;0.50;0.50;;;;;;;11.20;57.69;96982.09;4965219;28;20055;-60
2023/04/10 07:36:40;;;;;;;0.60;0.60;;;;;;;12.18;57.73;97052.69;4965680;28;20069;-59
2023/04/10 07:39:07;;;;;;;0.50;0.50;;;;;;;12.15;56.20;97030.44;4965609;28;20185;-66
2023/04/10 07:41:34;;;;;;;0.50;0.50;;;;;;;12.56;54.84;97045.94;4967205;28;20085;-59
2023/04/10 07:44:01;;;;;;;0.60;0.60;;;;;;;12.09;56.13;96990.31;4967437;28;20496;-70
2023/04/10 07:46:27;;;;;;;0.50;0.50;;;;;;;12.50;55.70;97043.88;4985972;28;20046;-59
2023/04/10 07:48:54;;;;;;;0.50;0.50;;;;;;;12.87;55.50;97045.38;4984724;28;20204;-60
2023/04/10 07:51:22;;;;;;;0.60;0.60;;;;;;;12.39;54.16;96996.56;4967362;28;20128;-60
2023/04/10 07:53:49;;;;;;;0.50;0.50;;;;;;;12.13;55.82;97038.34;4963482;28;20058;-58
2023/04/10 07:56:17;;;;;;;0.50;0.50;;;;;;;11.74;55.09;96942.75;4959289;28;20528;-59
2023/04/10 07:58:45;;;;;;;0.55;0.55;;;;;;;12.11;55.83;97024.03;4966014;28;20046;-66
2023/04/10 08:01:11;;;;;;;0.60;0.60;;;;;;;12.41;56.53;96985.84;4965142;28;20200;-59
2023/04/10 08:03:40;;;;;;;0.50;0.50;;;;;;;13.35;53.89;97038.63;4965336;28;20136;-57
2023/04/10 08:06:08;;;;;;;0.60;0.60;;;;;;;12.52;53.70;96927.59;4967278;28;20051;-60
2023/04/10 08:08:39;;;;;;;0.60;0.60;;;;;;;13.03;54.26;97043.16;4982299;28;20062;-70
2023/04/10 08:11:22;;;;;;;0.60;0.60;;;;;;;13.24;53.73;97043.31;4963899;28;20062;-71
2023/04/10 08:13:50;;;;;;;0.60;0.60;;;;;;;13.37;53.03;97005.63;4962623;28;20058;-62
2023/04/10 08:16:24;;;;;;;0.52;0.52;;;;;;;12.95;53.32;97008.13;4974869;28;20370;-64
2023/04/10 08:18:52;;;;;;;0.60;0.60;;;;;;;13.16;53.20;97044.47;4964094;28;20061;-59
2023/04/10 08:21:21;;;;;;;0.60;0.60;;;;;;;12.53;53.28;96927.22;4962198;28;20489;-68
2023/04/10 08:23:55;;;;;;;0.52;0.52;;;;;;;13.13;53.53;97033.31;4962550;28;20410;-67
2023/04/10 08:26:22;;;;;;;0.60;0.60;;;;;;;13.08;52.93;97034.47;4964364;28;20062;-64
2023/04/10 08:28:50;;;;;;;0.60;0.60;;;;;;;13.54;52.63;97052.25;4975741;28;20058;-57
2023/04/10 08:31:18;;;;;;;0.60;0.60;;;;;;;12.58;55.10;97038.00;4986583;28;20050;-65
2023/04/10 08:33:45;;;;;;;0.50;0.50;;;;;;;12.99;54.76;97036.72;4977065;28;20138;-64
2023/04/10 08:36:16;;;;;;;0.60;0.60;;;;;;;12.93;53.15;96960.44;4952489;28;20437;-60
2023/04/10 08:38:46;;;;;;;0.60;0.60;;;;;;;13.73;52.67;97030.84;4978238;28;20101;-65
2023/04/10 08:41:14;;;;;;;0.60;0.60;;;;;;;12.88;52.89;96963.56;4970754;28;20146;-63
2023/04/10 08:43:42;;;;;;;0.50;0.50;;;;;;;13.38;53.17;97037.84;4967546;28;20109;-60
2023/04/10 08:46:09;;;;;;;0.50;0.50;;;;;;;12.90;53.87;96993.78;4983790;28;20049;-70
2023/04/10 08:48:45;;;;;;;0.50;0.50;;;;;;;12.63;55.61;97034.84;4986366;28;20487;-68
2023/04/10 08:51:20;;;;;;;0.50;0.50;;;;;;;12.99;53.56;96986.69;4985814;28;20066;-67
2023/04/10 08:53:57;;;;;;;0.60;0.60;;;;;;;12.83;53.54;97000.09;4986150;28;20058;-61
2023/04/10 08:56:24;;;;;;;0.60;0.60;;;;;;;12.73;54.31;97028.59;4972984;28;20589;-72
2023/04/10 08:58:51;;;;;;;0.50;0.50;;;;;;;12.67;53.96;96994.00;4968527;28;20145;-59
2023/04/10 09:01:20;;;;;;;0.60;0.60;;;;;;;12.96;53.76;96998.59;4969463;28;20101;-71
2023/04/10 09:03:47;;;;;;;0.60;0.60;;;;;;;12.89;53.76;96976.31;4968657;28;20117;-61
2023/04/10 09:06:14;;;;;;;0.60;0.60;;;;;;;13.27;53.71;97003.59;4968052;28;20065;-59
2023/04/10 09:08:40;;;;;;;0.60;0.60;;;;;;;13.50;53.07;97017.22;4970362;28;20591;-59
2023/04/10 09:11:07;;;;;;;0.60;0.60;;;;;;;13.23;52.08;97018.69;4980468;28;20047;-74
2023/04/10 09:13:40;;;;;;;0.50;0.50;;;;;;;12.50;53.42;96929.97;4984458;28;20081;-74
2023/04/10 09:16:08;;;;;;;0.60;0.60;;;;;;;12.89;53.60;97004.13;4967851;28;20053;-76
2023/04/10 09:18:46;;;;;;;0.60;0.60;;;;;;;12.63;54.17;97001.50;4970292;28;20521;-58
2023/04/10 09:21:15;;;;;;;0.50;0.50;;;;;;;12.80;54.50;97000.88;4967298;28;20047;-57
2023/04/10 09:23:44;;;;;;;0.50;0.50;;;;;;;12.44;54.01;96900.94;4978973;28;20050;-72
2023/04/10 09:26:27;;;;;;;0.60;0.60;;;;;;;12.02;53.40;96840.31;4967537;28;20051;-57
2023/04/10 09:28:58;;;;;;;0.60;0.60;;;;;;;12.78;53.66;97003.25;4978428;28;20050;-74
2023/04/10 09:31:35;;;;;;;0.50;0.50;;;;;;;13.07;52.93;96968.13;4982549;28;20061;-57
2023/04/10 09:34:22;;;;;;;0.60;0.60;;;;;;;13.03;52.67;96995.09;4983251;28;20120;-78
2023/04/10 09:36:54;;;;;;;0.60;0.60;;;;;;;13.31;53.15;96984.94;4967375;28;20078;-57
2023/04/10 09:39:21;;;;;;;0.50;0.50;;;;;;;13.48;52.69;96987.00;4966085;28;20054;-70
2023/04/10 09:41:55;;;;;;;0.60;0.60;;;;;;;12.99;52.94;96958.88;4967827;28;20106;-56
2023/04/10 09:44:34;;;;;;;0.60;0.60;;;;;;;12.77;53.61;96970.25;4967691;28;20051;-57
2023/04/10 09:47:13;;;;;;;0.50;0.50;;;;;;;12.84;53.95;96996.13;4967680;28;20057;-70
2023/04/10 09:49:47;;;;;;;0.60;0.60;;;;;;;12.12;56.00;97003.44;4966324;28;20074;-69
2023/04/10 09:52:27;;;;;;;0.50;0.50;;;;;;;12.01;56.19;96997.75;4966707;28;20058;-71
2023/04/10 09:54:57;;;;;;;0.50;0.50;;;;;;;12.20;56.34;96955.13;4965810;28;20051;-58
2023/04/10 09:57:25;;;;;;;0.60;0.60;;;;;;;12.03;56.61;96991.81;4966990;28;20070;-56
2023/04/10 09:59:54;;;;;;;0.60;0.60;;;;;;;11.99;57.13;96988.22;4977679;28;20066;-70
2023/04/10 10:02:24;;;;;;;0.50;0.50;;;;;;;11.54;57.89;96946.88;4979279;28;20726;-68
2023/04/10 10:04:51;;;;;;;0.50;0.50;;;;;;;11.56;58.61;97002.75;4968194;28;20332;-71
2023/04/10 10:07:21;;;;;;;0.50;0.50;;;;;;;10.84;58.91;96884.97;4966920;28;20051;-57
2023/04/10 10:09:50;;;;;;;0.60;0.60;;;;;;;11.87;58.37;96985.72;4976556;28;20590;-57
2023/04/10 10:12:39;;;;;;;0.50;0.50;;;;;;;11.25;58.67;96870.06;4971331;28;20489;-59
2023/04/10 10:15:39;;;;;;;0.50;0.50;;;;;;;11.89;57.97;96977.78;4966725;28;20066;-58
2023/04/10 10:18:35;;;;;;;0.60;0.60;;;;;;;12.12;57.23;96981.22;4965891;28;20078;-73
2023/04/10 10:21:03;;;;;;;0.50;0.50;;;;;;;11.55;56.84;96920.72;4985669;28;20054;-71
2023/04/10 10:23:32;;;;;;;0.45;0.45;;;;;;;12.06;56.60;96971.66;4985933;28;20058;-71
2023/04/10 10:26:00;;;;;;;0.60;0.60;;;;;;;12.22;56.10;96963.84;4985937;28;20121;-70
2023/04/10 10:28:30;;;;;;;0.60;0.60;;;;;;;12.59;54.25;96959.00;4984091;28;20050;-56
2023/04/10 10:30:58;;;;;;;0.55;0.55;;;;;;;12.50;54.21;96935.53;4979819;28;20078;-58
2023/04/10 10:33:25;;;;;;;0.60;0.60;;;;;;;13.23;52.99;96958.25;4966082;28;20090;-70
2023/04/10 10:35:52;;;;;;;0.50;0.50;;;;;;;13.56;51.91;96958.00;4966872;28;20481;-63
2023/04/10 10:38:20;;;;;;;0.60;0.60;;;;;;;13.10;51.07;96859.66;4966239;28;20076;-58
2023/04/10 10:40:55;;;;;;;0.50;0.50;;;;;;;13.41;51.67;96959.16;4965972;28;20046;-63
2023/04/10 10:43:49;;;;;;;0.60;0.60;;;;;;;13.48;51.19;96952.81;4969646;28;20548;-63
2023/04/10 10:46:39;;;;;;;0.60;0.60;;;;;;;13.48;51.79;96952.81;4967385;28;20469;-60
2023/04/10 10:49:05;;;;;;;0.60;0.60;;;;;;;13.40;52.83;96943.63;4973533;28;20452;-57
2023/04/10 10:51:46;;;;;;;0.60;0.60;;;;;;;13.06;52.26;96903.34;4969242;28;20217;-68
2023/04/10 10:54:33;;;;;;;0.60;0.60;;;;;;;12.73;53.69;96928.53;4965883;28;20557;-65
2023/04/10 10:57:01;;;;;;;0.50;0.50;;;;;;;12.91;53.15;96901.66;4966113;28;20516;-62
2023/04/10 10:59:46;;;;;;;0.60;0.60;;;;;;;13.20;53.35;96928.44;4970970;28;20050;-58
2023/04/10 11:02:18;;;;;;;0.60;0.60;;;;;;;13.27;52.57;96922.94;4966187;28;20051;-59
2023/04/10 11:04:46;;;;;;;0.60;0.60;;;;;;;13.20;52.57;96920.09;4985263;28;20062;-69
2023/04/10 11:07:15;;;;;;;0.60;0.60;;;;;;;12.67;52.52;96824.50;4979305;28;20051;-69
2023/04/10 11:10:00;;;;;;;0.60;0.60;;;;;;;14.34;50.08;96905.28;4971270;28;20058;-68
2023/04/10 11:12:27;;;;;;;0.50;0.50;;;;;;;14.50;49.12;96944.72;4979229;28;20042;-70
2023/04/10 11:15:01;;;;;;;0.60;0.60;;;;;;;14.73;48.44;96908.88;4980729;28;20137;-58
2023/04/10 11:17:52;;;;;;;0.70;0.70;;;;;;;15.62;46.77;96897.03;4985251;28;20145;-58
2023/04/10 11:20:24;;;;;;;0.70;0.70;;;;;;;15.51;46.05;96851.63;4982335;28;20521;-57
2023/04/10 11:23:11;;;;;;;0.60;0.60;;;;;;;14.18;46.68;96771.16;4984868;28;20065;-66
2023/04/10 11:25:52;;;;;;;0.70;0.70;;;;;;;14.85;45.80;96813.63;4976833;28;20051;-61
2023/04/10 11:28:31;;;;;;;0.68;0.68;;;;;;;15.05;46.89;96884.47;4968789;28;20140;-66
2023/04/10 11:31:20;;;;;;;0.60;0.60;;;;;;;14.42;48.14;96890.16;4964997;28;20055;-60
2023/04/10 11:34:07;;;;;;;0.70;0.70;;;;;;;14.70;47.67;96887.38;4967698;28;20053;-61
2023/04/10 11:36:37;;;;;;;0.60;0.60;;;;;;;14.47;47.06;96859.09;4979321;28;20619;-58
2023/04/10 11:39:08;;;;;;;0.60;0.60;;;;;;;14.08;48.58;96880.59;4973753;28;20521;-66
2023/04/10 11:41:37;;;;;;;0.60;0.60;;;;;;;13.88;49.09;96887.72;4978147;28;20054;-68
2023/04/10 11:44:06;;;;;;;0.60;0.60;;;;;;;11.95;50.15;96569.03;4982864;28;20513;-69
2023/04/10 11:46:41;;;;;;;0.55;0.55;;;;;;;14.39;49.51;96874.25;4984515;28;20050;-58